createdAt,value
2023-01-06T00:03:52.397Z,4.66
2023-01-06T00:11:28.606Z,4.63
2023-01-06T00:19:03.872Z,4.57
2023-01-06T00:26:37.943Z,4.52
2023-01-06T00:34:13.419Z,4.38
2023-01-06T00:42:06.100Z,4.36
2023-01-06T00:49:41.656Z,4.38
2023-01-06T00:57:15.764Z,4.40
2023-01-06T01:04:51.198Z,4.39
2023-01-06T01:12:25.279Z,4.35
2023-01-06T01:20:01.310Z,4.33
2023-01-06T01:27:35.468Z,4.37
2023-01-06T01:35:11.608Z,4.40
2023-01-06T01:42:45.585Z,4.41
2023-01-06T01:50:28.188Z,4.39
2023-01-06T01:58:07.461Z,4.42
2023-01-06T02:05:48.162Z,4.48
2023-01-06T02:13:22.472Z,4.50
2023-01-06T02:21:08.640Z,4.47
2023-01-06T02:29:01.404Z,4.48
2023-01-06T02:36:46.315Z,4.52
2023-01-06T02:44:29.367Z,4.47
2023-01-06T02:52:14.348Z,4.53
2023-01-06T02:59:50.575Z,4.58
2023-01-06T03:07:29.533Z,4.54
2023-01-06T03:15:03.830Z,4.55
2023-01-06T03:22:40.751Z,4.57
2023-01-06T03:30:16.305Z,4.58
2023-01-06T03:37:58.269Z,4.63
2023-01-06T03:45:43.478Z,4.65
2023-01-06T03:53:34.389Z,4.65
2023-01-06T04:01:10.297Z,4.69
2023-01-06T04:08:45.970Z,4.73
2023-01-06T04:16:20.070Z,4.75
2023-01-06T04:23:55.640Z,4.80
2023-01-06T04:31:29.987Z,4.84
2023-01-06T04:39:05.787Z,4.87
2023-01-06T04:46:40.102Z,4.93
2023-01-06T04:54:15.560Z,4.94
2023-01-06T05:01:49.423Z,4.98
2023-01-06T05:09:24.981Z,5.00
2023-01-06T05:16:58.961Z,5.02
2023-01-06T05:24:34.410Z,5.03
2023-01-06T05:32:08.289Z,5.03
2023-01-06T05:39:44.059Z,5.04
2023-01-06T05:47:17.952Z,5.03
2023-01-06T05:54:53.195Z,5.08
2023-01-06T06:02:27.092Z,5.13
2023-01-06T06:10:02.634Z,5.20
2023-01-06T06:17:36.948Z,5.26
2023-01-06T06:25:12.221Z,5.32
2023-01-06T06:32:46.124Z,5.33
2023-01-06T06:40:21.358Z,5.41
2023-01-06T06:47:55.477Z,5.47
2023-01-06T06:55:30.746Z,5.54
2023-01-06T07:03:04.973Z,5.61
2023-01-06T07:10:40.551Z,5.67
2023-01-06T07:18:14.856Z,5.74
2023-01-06T07:25:54.356Z,5.77
2023-01-06T07:33:29.452Z,5.81
2023-01-06T07:41:05.019Z,5.86
2023-01-06T07:48:38.867Z,5.90
2023-01-06T07:56:14.908Z,5.94
2023-01-06T08:03:48.870Z,6.01
2023-01-06T08:11:24.189Z,6.06
2023-01-06T08:18:58.091Z,6.10
2023-01-06T08:26:33.461Z,6.16
2023-01-06T08:34:07.175Z,6.22
2023-01-06T08:41:42.607Z,6.28
2023-01-06T08:49:16.471Z,6.33
2023-01-06T08:56:52.665Z,6.41
2023-01-06T09:04:26.498Z,6.47
2023-01-06T09:12:01.602Z,6.54
2023-01-06T09:19:35.365Z,6.63
2023-01-06T09:27:10.665Z,6.75
2023-01-06T09:34:44.481Z,6.81
2023-01-06T09:42:30.698Z,6.95
2023-01-06T09:50:09.658Z,7.08
2023-01-06T09:57:50.164Z,7.16
2023-01-06T10:05:29.682Z,7.25
2023-01-06T10:13:19.971Z,7.38
2023-01-06T10:20:59.401Z,7.47
2023-01-06T10:28:37.289Z,7.53
2023-01-06T10:36:13.963Z,7.75
2023-01-06T10:43:49.240Z,7.90
2023-01-06T10:51:36.462Z,8.05
2023-01-06T10:59:13.395Z,8.18
2023-01-06T11:06:51.375Z,8.25
2023-01-06T11:14:31.265Z,8.26
2023-01-06T11:22:06.248Z,8.33
2023-01-06T11:29:41.439Z,8.37
2023-01-06T11:37:15.524Z,8.41
2023-01-06T11:44:51.954Z,8.48
2023-01-06T11:52:31.308Z,8.55
2023-01-06T12:00:21.547Z,8.59
2023-01-06T12:07:59.026Z,8.69
2023-01-06T12:15:36.142Z,8.76
2023-01-06T12:23:17.675Z,8.82
2023-01-06T12:30:58.483Z,8.88
2023-01-06T12:38:44.107Z,8.97
2023-01-06T12:46:24.928Z,9.09
2023-01-06T12:54:04.919Z,9.14
2023-01-06T13:01:46.838Z,9.22
2023-01-06T13:09:32.382Z,9.29
2023-01-06T13:17:16.526Z,9.36
2023-01-06T13:25:13.851Z,9.43
2023-01-06T13:33:09.577Z,9.50
2023-01-06T13:40:45.590Z,9.58
2023-01-06T13:48:24.427Z,9.67
2023-01-06T13:56:30.152Z,9.72
2023-01-06T14:04:42.730Z,9.80
2023-01-06T14:12:22.712Z,9.91
2023-01-06T14:19:57.140Z,9.96
2023-01-06T14:28:13.532Z,10.10
2023-01-06T14:35:49.745Z,10.13
2023-01-06T14:43:32.040Z,10.08
2023-01-06T14:51:08.549Z,10.07
2023-01-06T14:58:42.412Z,10.04
2023-01-06T15:06:22.059Z,10.03
2023-01-06T15:13:56.304Z,10.01
2023-01-06T15:21:31.637Z,9.99
2023-01-06T15:29:07.253Z,10.01
2023-01-06T15:36:44.227Z,9.98
2023-01-06T15:44:23.901Z,9.97
2023-01-06T15:52:05.139Z,9.92
2023-01-06T15:59:39.941Z,9.94
2023-01-06T16:07:36.734Z,9.92
2023-01-06T16:15:46.468Z,9.89
2023-01-06T16:23:32.762Z,9.91
2023-01-06T16:31:09.563Z,9.90
2023-01-06T16:38:45.387Z,9.90
2023-01-06T16:46:22.345Z,9.85
2023-01-06T16:53:58.080Z,9.82
2023-01-06T17:01:32.113Z,9.78
2023-01-06T17:09:18.115Z,9.75
2023-01-06T17:16:51.998Z,9.74
2023-01-06T17:24:30.167Z,9.74
2023-01-06T17:32:11.478Z,9.72
2023-01-06T17:39:48.209Z,9.67
2023-01-06T17:47:29.246Z,9.61
2023-01-06T17:55:46.557Z,9.52
2023-01-06T18:03:23.306Z,9.48
2023-01-06T18:11:07.707Z,9.44
2023-01-06T18:18:42.072Z,9.39
2023-01-06T18:26:35.011Z,9.33
2023-01-06T18:34:27.547Z,9.24
2023-01-06T18:42:25.273Z,9.20
2023-01-06T18:50:15.116Z,9.17
2023-01-06T18:57:56.986Z,9.14
2023-01-06T19:05:31.764Z,9.06
2023-01-06T19:13:18.986Z,8.97
2023-01-06T19:20:53.391Z,8.94
2023-01-06T19:28:32.263Z,8.88
2023-01-06T19:36:39.081Z,8.82
2023-01-06T19:44:16.043Z,8.76
2023-01-06T19:51:51.250Z,8.73
2023-01-06T19:59:30.345Z,8.66
2023-01-06T20:07:04.529Z,8.63
2023-01-06T20:14:39.914Z,8.57
2023-01-06T20:22:13.969Z,8.52
2023-01-06T20:29:49.464Z,8.47
2023-01-06T20:37:23.261Z,8.45
2023-01-06T20:44:58.555Z,8.41
2023-01-06T20:52:32.356Z,8.37
2023-01-06T21:00:11.703Z,8.35
2023-01-06T21:07:45.599Z,8.22
2023-01-06T21:15:20.839Z,8.14
2023-01-06T21:22:54.759Z,8.07
2023-01-06T21:30:32.073Z,8.04
2023-01-06T21:38:06.008Z,7.98
2023-01-06T21:45:43.270Z,7.87
2023-01-06T21:53:17.461Z,7.79
2023-01-06T22:00:53.381Z,7.74
2023-01-06T22:08:27.548Z,7.66
2023-01-06T22:16:03.136Z,7.57
2023-01-06T22:23:37.797Z,7.47
2023-01-06T22:31:13.127Z,7.41
2023-01-06T22:38:46.951Z,7.31
2023-01-06T22:46:22.506Z,7.27
2023-01-06T22:53:57.151Z,7.22
2023-01-06T23:01:33.355Z,7.19
2023-01-06T23:09:07.259Z,7.16
2023-01-06T23:16:45.083Z,7.16
2023-01-06T23:24:19.093Z,7.13
2023-01-06T23:31:54.455Z,7.06
2023-01-06T23:39:28.397Z,7.04
2023-01-06T23:47:03.777Z,6.94
2023-01-06T23:54:37.787Z,6.92
